Delta, Louisiana
Current Conditions -  °F | °C
As of 1:35 PM on Tuesday 21 Oct 2014 (Local Time) from KVKS Reporting Station
Clear Clear  
Wind Chill: 25°   Ceiling: Unl
Heat Index: 26°   Visibility: 10mi
Dew Point: 14°   Wind: 0mph
Humidity: 50%   Direction: NA
Pressure: 30.06"   Gusts: NA
Location:  32.33°N, 90.93°W
Report Text: KVKS 211835Z AUTO 00000KT 10SM CLR 25/14 A3006 RMK A01
Loading
Personal Weather Stations






























Interactive Weather Map
Tropical Storm Tracking
New forecast layout! Learn more

10-Day Weather Forecast

Advertisements
Track Severe Weather on mobile